KQFV

Sachang

Sachang, South Korea
METAR KQFV 191840Z AUTO 28002KT 9999 FEW005 FEW024 BKN060 16/16 A2994 RMK A02 TSNO
Observed Flight Rules
Sep-19 @ 18:40 UTC (19 minutes ago) Visual Flight Rules
Wind Visibility Clouds
280° at 2 knots 10,000+ meters
  • Few at 500' AGL
  • Few at 2,400' AGL
  • Broken at 6,000' AGL
Temperatures Readings
Current 16°C / 61°F
Dewpoint 16°C / 61°F
Humidity 100%
Altimeter 29.94" Hg
Pressure 1014 hPa
METAR KQFV 191840Z AUTO 28002KT 9999 FEW005 FEW024 BKN060 16/16 A2994 RMK A02 TSNO
Observed Flight Rules
Sep-19 @ 18:40 UTC
(19 minutes ago)
VFR
Wind Visibility
280° at 2 knots 10,000+ meters
Clouds
  • Few at 500' AGL
  • Few at 2,400' AGL
  • Broken at 6,000' AGL
Temperature Dewpoint
16°C / 61°F 16°C / 61°F
Humidity Altimeter Pressure
100% 29.94" Hg 1014 hPa